sensor_id;sensor_type;location;lat;lon;timestamp;P1;durP1;ratioP1;P2;durP2;ratioP2
23362;SDS011;11853;48.080;11.960;2022-07-21T00:00:22;5.30;;;3.30;;
23362;SDS011;11853;48.080;11.960;2022-07-21T00:02:50;3.78;;;2.95;;
23362;SDS011;11853;48.080;11.960;2022-07-21T00:05:16;3.60;;;3.30;;
23362;SDS011;11853;48.080;11.960;2022-07-21T00:07:41;4.88;;;3.13;;
23362;SDS011;11853;48.080;11.960;2022-07-21T00:10:07;3.33;;;3.03;;
23362;SDS011;11853;48.080;11.960;2022-07-21T00:12:33;5.32;;;2.92;;
23362;SDS011;11853;48.080;11.960;2022-07-21T00:14:59;3.38;;;2.85;;
23362;SDS011;11853;48.080;11.960;2022-07-21T00:17:24;4.78;;;3.17;;
23362;SDS011;11853;48.080;11.960;2022-07-21T00:19:50;3.40;;;2.97;;
23362;SDS011;11853;48.080;11.960;2022-07-21T00:22:15;3.88;;;2.78;;
23362;SDS011;11853;48.080;11.960;2022-07-21T00:24:41;4.22;;;3.08;;
23362;SDS011;11853;48.080;11.960;2022-07-21T00:27:07;3.20;;;2.90;;
23362;SDS011;11853;48.080;11.960;2022-07-21T00:29:32;3.40;;;3.10;;
23362;SDS011;11853;48.080;11.960;2022-07-21T00:31:58;3.78;;;3.20;;
23362;SDS011;11853;48.080;11.960;2022-07-21T00:34:25;3.67;;;3.25;;
23362;SDS011;11853;48.080;11.960;2022-07-21T00:36:51;3.53;;;3.22;;
23362;SDS011;11853;48.080;11.960;2022-07-21T00:39:17;6.15;;;3.58;;
23362;SDS011;11853;48.080;11.960;2022-07-21T00:41:42;4.35;;;3.47;;
23362;SDS011;11853;48.080;11.960;2022-07-21T00:44:24;3.63;;;2.80;;
23362;SDS011;11853;48.080;11.960;2022-07-21T00:46:51;6.55;;;3.40;;
23362;SDS011;11853;48.080;11.960;2022-07-21T00:49:17;5.25;;;3.30;;
23362;SDS011;11853;48.080;11.960;2022-07-21T00:51:44;3.72;;;3.40;;
23362;SDS011;11853;48.080;11.960;2022-07-21T00:54:11;6.45;;;3.45;;
23362;SDS011;11853;48.080;11.960;2022-07-21T00:56:37;3.85;;;3.47;;
23362;SDS011;11853;48.080;11.960;2022-07-21T00:59:03;3.55;;;3.10;;
23362;SDS011;11853;48.080;11.960;2022-07-21T01:01:28;3.78;;;3.03;;
23362;SDS011;11853;48.080;11.960;2022-07-21T01:03:54;3.88;;;3.53;;
23362;SDS011;11853;48.080;11.960;2022-07-21T01:06:20;5.07;;;3.53;;
23362;SDS011;11853;48.080;11.960;2022-07-21T01:08:48;4.53;;;3.15;;
23362;SDS011;11853;48.080;11.960;2022-07-21T01:11:15;4.13;;;3.72;;
23362;SDS011;11853;48.080;11.960;2022-07-21T01:13:41;3.38;;;3.08;;
23362;SDS011;11853;48.080;11.960;2022-07-21T01:16:08;5.65;;;3.83;;
23362;SDS011;11853;48.080;11.960;2022-07-21T01:18:34;3.83;;;3.53;;
23362;SDS011;11853;48.080;11.960;2022-07-21T01:21:02;3.70;;;3.40;;
23362;SDS011;11853;48.080;11.960;2022-07-21T01:23:32;4.85;;;3.70;;
23362;SDS011;11853;48.080;11.960;2022-07-21T01:25:58;5.40;;;3.63;;
23362;SDS011;11853;48.080;11.960;2022-07-21T01:28:24;5.72;;;3.70;;
23362;SDS011;11853;48.080;11.960;2022-07-21T01:30:50;5.75;;;3.67;;
23362;SDS011;11853;48.080;11.960;2022-07-21T01:33:15;4.07;;;3.47;;
23362;SDS011;11853;48.080;11.960;2022-07-21T01:35:41;7.03;;;3.70;;
23362;SDS011;11853;48.080;11.960;2022-07-21T01:38:07;4.88;;;3.70;;
23362;SDS011;11853;48.080;11.960;2022-07-21T01:40:59;6.05;;;4.03;;
23362;SDS011;11853;48.080;11.960;2022-07-21T01:43:43;5.68;;;3.83;;
23362;SDS011;11853;48.080;11.960;2022-07-21T01:46:12;7.15;;;4.03;;
23362;SDS011;11853;48.080;11.960;2022-07-21T01:48:44;5.38;;;3.83;;
23362;SDS011;11853;48.080;11.960;2022-07-21T01:51:10;4.40;;;3.80;;
23362;SDS011;11853;48.080;11.960;2022-07-21T01:53:36;4.13;;;3.72;;
23362;SDS011;11853;48.080;11.960;2022-07-21T01:56:03;3.38;;;3.17;;
23362;SDS011;11853;48.080;11.960;2022-07-21T01:58:29;5.20;;;3.72;;
23362;SDS011;11853;48.080;11.960;2022-07-21T02:00:55;6.05;;;3.80;;
23362;SDS011;11853;48.080;11.960;2022-07-21T02:03:21;6.15;;;3.95;;
23362;SDS011;11853;48.080;11.960;2022-07-21T02:05:46;5.72;;;3.67;;
23362;SDS011;11853;48.080;11.960;2022-07-21T02:08:12;6.30;;;4.10;;
23362;SDS011;11853;48.080;11.960;2022-07-21T02:10:38;5.88;;;4.00;;
23362;SDS011;11853;48.080;11.960;2022-07-21T02:13:03;5.25;;;4.10;;
23362;SDS011;11853;48.080;11.960;2022-07-21T02:15:29;5.80;;;4.20;;
23362;SDS011;11853;48.080;11.960;2022-07-21T02:17:56;4.72;;;3.90;;
23362;SDS011;11853;48.080;11.960;2022-07-21T02:20:22;6.32;;;4.13;;
23362;SDS011;11853;48.080;11.960;2022-07-21T02:22:50;5.85;;;3.80;;
23362;SDS011;11853;48.080;11.960;2022-07-21T02:25:16;4.68;;;3.90;;
23362;SDS011;11853;48.080;11.960;2022-07-21T02:27:42;6.40;;;4.43;;
23362;SDS011;11853;48.080;11.960;2022-07-21T02:30:09;8.20;;;4.05;;
23362;SDS011;11853;48.080;11.960;2022-07-21T02:32:35;8.63;;;3.83;;
23362;SDS011;11853;48.080;11.960;2022-07-21T02:35:01;5.97;;;3.88;;
23362;SDS011;11853;48.080;11.960;2022-07-21T02:37:27;4.03;;;3.67;;
23362;SDS011;11853;48.080;11.960;2022-07-21T02:39:53;6.22;;;4.03;;
23362;SDS011;11853;48.080;11.960;2022-07-21T02:42:19;5.18;;;4.10;;
23362;SDS011;11853;48.080;11.960;2022-07-21T02:44:44;8.52;;;4.30;;
23362;SDS011;11853;48.080;11.960;2022-07-21T02:47:10;7.95;;;3.88;;
23362;SDS011;11853;48.080;11.960;2022-07-21T02:49:35;4.95;;;4.22;;
23362;SDS011;11853;48.080;11.960;2022-07-21T02:52:01;6.68;;;4.22;;
23362;SDS011;11853;48.080;11.960;2022-07-21T02:54:27;6.10;;;4.03;;
23362;SDS011;11853;48.080;11.960;2022-07-21T02:56:52;4.50;;;3.95;;
23362;SDS011;11853;48.080;11.960;2022-07-21T02:59:18;4.78;;;3.80;;
23362;SDS011;11853;48.080;11.960;2022-07-21T03:01:43;4.68;;;4.10;;
23362;SDS011;11853;48.080;11.960;2022-07-21T03:04:09;4.85;;;4.13;;
23362;SDS011;11853;48.080;11.960;2022-07-21T03:06:36;4.88;;;4.47;;
23362;SDS011;11853;48.080;11.960;2022-07-21T03:09:03;5.70;;;4.38;;
23362;SDS011;11853;48.080;11.960;2022-07-21T03:11:28;5.20;;;4.22;;
23362;SDS011;11853;48.080;11.960;2022-07-21T03:13:54;4.32;;;3.92;;
23362;SDS011;11853;48.080;11.960;2022-07-21T03:16:20;7.32;;;4.35;;
23362;SDS011;11853;48.080;11.960;2022-07-21T03:18:45;7.13;;;4.10;;
23362;SDS011;11853;48.080;11.960;2022-07-21T03:21:11;6.38;;;4.35;;
23362;SDS011;11853;48.080;11.960;2022-07-21T03:23:36;5.90;;;4.15;;
23362;SDS011;11853;48.080;11.960;2022-07-21T03:26:02;4.65;;;4.25;;
23362;SDS011;11853;48.080;11.960;2022-07-21T03:28:28;4.63;;;4.18;;
23362;SDS011;11853;48.080;11.960;2022-07-21T03:30:54;6.32;;;4.45;;
23362;SDS011;11853;48.080;11.960;2022-07-21T03:33:19;6.45;;;4.22;;
23362;SDS011;11853;48.080;11.960;2022-07-21T03:35:45;7.38;;;4.50;;
23362;SDS011;11853;48.080;11.960;2022-07-21T03:38:11;4.78;;;3.97;;
23362;SDS011;11853;48.080;11.960;2022-07-21T03:40:37;6.50;;;4.20;;
23362;SDS011;11853;48.080;11.960;2022-07-21T03:43:04;5.60;;;5.10;;
23362;SDS011;11853;48.080;11.960;2022-07-21T03:45:32;5.15;;;4.15;;
23362;SDS011;11853;48.080;11.960;2022-07-21T03:47:59;7.65;;;4.07;;
23362;SDS011;11853;48.080;11.960;2022-07-21T03:50:26;5.90;;;4.57;;
23362;SDS011;11853;48.080;11.960;2022-07-21T03:52:52;5.97;;;4.65;;
23362;SDS011;11853;48.080;11.960;2022-07-21T03:55:18;6.00;;;4.40;;
23362;SDS011;11853;48.080;11.960;2022-07-21T03:57:45;5.78;;;4.65;;
23362;SDS011;11853;48.080;11.960;2022-07-21T04:00:14;6.57;;;4.10;;
23362;SDS011;11853;48.080;11.960;2022-07-21T04:02:41;5.45;;;4.43;;
23362;SDS011;11853;48.080;11.960;2022-07-21T04:05:10;6.38;;;4.30;;
23362;SDS011;11853;48.080;11.960;2022-07-21T04:07:40;4.82;;;4.43;;
23362;SDS011;11853;48.080;11.960;2022-07-21T04:10:08;9.07;;;4.53;;
23362;SDS011;11853;48.080;11.960;2022-07-21T04:12:35;5.85;;;4.75;;
23362;SDS011;11853;48.080;11.960;2022-07-21T04:15:01;6.78;;;5.30;;
23362;SDS011;11853;48.080;11.960;2022-07-21T04:17:27;5.40;;;4.68;;
23362;SDS011;11853;48.080;11.960;2022-07-21T04:19:53;6.72;;;4.80;;
23362;SDS011;11853;48.080;11.960;2022-07-21T04:22:18;5.95;;;5.40;;
23362;SDS011;11853;48.080;11.960;2022-07-21T04:24:44;5.97;;;5.47;;
23362;SDS011;11853;48.080;11.960;2022-07-21T04:27:09;5.47;;;4.85;;
23362;SDS011;11853;48.080;11.960;2022-07-21T04:29:35;5.82;;;4.93;;
23362;SDS011;11853;48.080;11.960;2022-07-21T04:32:01;6.85;;;4.97;;
23362;SDS011;11853;48.080;11.960;2022-07-21T04:34:26;6.40;;;5.22;;
23362;SDS011;11853;48.080;11.960;2022-07-21T04:36:53;5.68;;;5.18;;
23362;SDS011;11853;48.080;11.960;2022-07-21T04:39:19;5.63;;;5.13;;
23362;SDS011;11853;48.080;11.960;2022-07-21T04:41:44;6.10;;;5.50;;
23362;SDS011;11853;48.080;11.960;2022-07-21T04:44:10;6.75;;;6.05;;
23362;SDS011;11853;48.080;11.960;2022-07-21T04:46:35;6.60;;;5.90;;
23362;SDS011;11853;48.080;11.960;2022-07-21T04:49:01;6.35;;;5.78;;
23362;SDS011;11853;48.080;11.960;2022-07-21T04:51:27;6.47;;;5.88;;
23362;SDS011;11853;48.080;11.960;2022-07-21T04:53:52;6.53;;;5.93;;
23362;SDS011;11853;48.080;11.960;2022-07-21T04:56:18;6.97;;;6.30;;
23362;SDS011;11853;48.080;11.960;2022-07-21T04:58:43;7.50;;;6.35;;
23362;SDS011;11853;48.080;11.960;2022-07-21T05:01:09;7.25;;;6.65;;
23362;SDS011;11853;48.080;11.960;2022-07-21T05:03:34;7.90;;;7.03;;
23362;SDS011;11853;48.080;11.960;2022-07-21T05:06:00;9.30;;;8.27;;
23362;SDS011;11853;48.080;11.960;2022-07-21T05:08:25;8.98;;;8.18;;
23362;SDS011;11853;48.080;11.960;2022-07-21T05:10:52;10.00;;;8.73;;
23362;SDS011;11853;48.080;11.960;2022-07-21T05:13:18;9.88;;;8.50;;
23362;SDS011;11853;48.080;11.960;2022-07-21T05:15:43;9.43;;;8.52;;
23362;SDS011;11853;48.080;11.960;2022-07-21T05:18:09;10.13;;;9.18;;
23362;SDS011;11853;48.080;11.960;2022-07-21T05:20:35;10.27;;;9.05;;
23362;SDS011;11853;48.080;11.960;2022-07-21T05:23:00;9.88;;;8.65;;
23362;SDS011;11853;48.080;11.960;2022-07-21T05:25:27;9.35;;;8.55;;
23362;SDS011;11853;48.080;11.960;2022-07-21T05:27:53;9.65;;;8.85;;
23362;SDS011;11853;48.080;11.960;2022-07-21T05:30:19;10.65;;;9.65;;
23362;SDS011;11853;48.080;11.960;2022-07-21T05:32:45;11.32;;;9.65;;
23362;SDS011;11853;48.080;11.960;2022-07-21T05:35:11;10.40;;;9.23;;
23362;SDS011;11853;48.080;11.960;2022-07-21T05:37:40;10.75;;;9.68;;
23362;SDS011;11853;48.080;11.960;2022-07-21T05:40:07;10.32;;;9.40;;
23362;SDS011;11853;48.080;11.960;2022-07-21T05:42:34;10.18;;;9.23;;
23362;SDS011;11853;48.080;11.960;2022-07-21T05:45:00;10.60;;;9.60;;
23362;SDS011;11853;48.080;11.960;2022-07-21T05:47:26;10.95;;;10.02;;
23362;SDS011;11853;48.080;11.960;2022-07-21T05:49:51;10.48;;;9.55;;
23362;SDS011;11853;48.080;11.960;2022-07-21T05:52:17;10.55;;;9.50;;
23362;SDS011;11853;48.080;11.960;2022-07-21T05:54:43;10.80;;;9.55;;
23362;SDS011;11853;48.080;11.960;2022-07-21T05:57:08;10.68;;;9.60;;
23362;SDS011;11853;48.080;11.960;2022-07-21T05:59:34;11.18;;;10.13;;
23362;SDS011;11853;48.080;11.960;2022-07-21T06:01:59;11.30;;;10.15;;
23362;SDS011;11853;48.080;11.960;2022-07-21T06:04:25;12.70;;;10.50;;
23362;SDS011;11853;48.080;11.960;2022-07-21T06:06:50;11.80;;;10.40;;
23362;SDS011;11853;48.080;11.960;2022-07-21T06:09:17;12.05;;;10.82;;
23362;SDS011;11853;48.080;11.960;2022-07-21T06:11:44;11.05;;;9.95;;
23362;SDS011;11853;48.080;11.960;2022-07-21T06:14:09;10.80;;;9.80;;
23362;SDS011;11853;48.080;11.960;2022-07-21T06:16:35;11.75;;;10.55;;
23362;SDS011;11853;48.080;11.960;2022-07-21T06:19:01;11.63;;;10.43;;
23362;SDS011;11853;48.080;11.960;2022-07-21T06:21:28;12.35;;;10.35;;
23362;SDS011;11853;48.080;11.960;2022-07-21T06:23:53;11.43;;;10.27;;
23362;SDS011;11853;48.080;11.960;2022-07-21T06:26:19;11.35;;;10.35;;
23362;SDS011;11853;48.080;11.960;2022-07-21T06:28:45;14.43;;;10.98;;
23362;SDS011;11853;48.080;11.960;2022-07-21T06:31:10;11.40;;;9.95;;
23362;SDS011;11853;48.080;11.960;2022-07-21T06:33:36;11.23;;;10.02;;
23362;SDS011;11853;48.080;11.960;2022-07-21T06:36:02;11.55;;;10.45;;
23362;SDS011;11853;48.080;11.960;2022-07-21T06:38:27;10.35;;;9.43;;
23362;SDS011;11853;48.080;11.960;2022-07-21T06:40:53;10.50;;;9.60;;
23362;SDS011;11853;48.080;11.960;2022-07-21T06:43:19;11.75;;;10.48;;
23362;SDS011;11853;48.080;11.960;2022-07-21T06:45:45;11.02;;;9.93;;
23362;SDS011;11853;48.080;11.960;2022-07-21T06:48:10;11.00;;;9.80;;
23362;SDS011;11853;48.080;11.960;2022-07-21T06:50:37;11.15;;;9.82;;
23362;SDS011;11853;48.080;11.960;2022-07-21T06:53:03;11.85;;;9.70;;
23362;SDS011;11853;48.080;11.960;2022-07-21T06:55:29;10.13;;;9.23;;
23362;SDS011;11853;48.080;11.960;2022-07-21T06:57:55;11.52;;;10.43;;
23362;SDS011;11853;48.080;11.960;2022-07-21T07:00:21;12.23;;;10.02;;
23362;SDS011;11853;48.080;11.960;2022-07-21T07:02:48;10.02;;;9.02;;
23362;SDS011;11853;48.080;11.960;2022-07-21T07:05:13;9.82;;;8.82;;
23362;SDS011;11853;48.080;11.960;2022-07-21T07:07:39;11.52;;;9.80;;
23362;SDS011;11853;48.080;11.960;2022-07-21T07:10:05;13.02;;;10.07;;
23362;SDS011;11853;48.080;11.960;2022-07-21T07:12:31;11.05;;;10.05;;
23362;SDS011;11853;48.080;11.960;2022-07-21T07:14:57;11.43;;;9.95;;
23362;SDS011;11853;48.080;11.960;2022-07-21T07:17:23;12.27;;;11.07;;
23362;SDS011;11853;48.080;11.960;2022-07-21T07:19:49;10.93;;;9.93;;
23362;SDS011;11853;48.080;11.960;2022-07-21T07:22:15;11.55;;;10.38;;
23362;SDS011;11853;48.080;11.960;2022-07-21T07:24:40;12.02;;;10.80;;
23362;SDS011;11853;48.080;11.960;2022-07-21T07:27:06;11.48;;;10.38;;
23362;SDS011;11853;48.080;11.960;2022-07-21T07:29:32;11.18;;;10.00;;
23362;SDS011;11853;48.080;11.960;2022-07-21T07:31:58;11.60;;;10.60;;
23362;SDS011;11853;48.080;11.960;2022-07-21T07:34:24;12.43;;;11.32;;
23362;SDS011;11853;48.080;11.960;2022-07-21T07:36:49;11.85;;;10.75;;
23362;SDS011;11853;48.080;11.960;2022-07-21T07:39:15;11.43;;;10.43;;
23362;SDS011;11853;48.080;11.960;2022-07-21T07:41:41;11.63;;;10.52;;
23362;SDS011;11853;48.080;11.960;2022-07-21T07:44:08;11.48;;;10.50;;
23362;SDS011;11853;48.080;11.960;2022-07-21T07:46:34;12.98;;;11.57;;
23362;SDS011;11853;48.080;11.960;2022-07-21T07:49:00;11.43;;;10.35;;
23362;SDS011;11853;48.080;11.960;2022-07-21T07:51:26;12.00;;;10.65;;
23362;SDS011;11853;48.080;11.960;2022-07-21T07:53:51;13.40;;;10.75;;
23362;SDS011;11853;48.080;11.960;2022-07-21T07:56:17;11.52;;;10.32;;
23362;SDS011;11853;48.080;11.960;2022-07-21T07:58:42;11.10;;;10.00;;
23362;SDS011;11853;48.080;11.960;2022-07-21T08:01:08;11.57;;;10.45;;
23362;SDS011;11853;48.080;11.960;2022-07-21T08:03:34;10.00;;;9.05;;
23362;SDS011;11853;48.080;11.960;2022-07-21T08:06:01;11.88;;;10.73;;
23362;SDS011;11853;48.080;11.960;2022-07-21T08:08:31;12.38;;;11.18;;
23362;SDS011;11853;48.080;11.960;2022-07-21T08:10:57;11.77;;;10.57;;
23362;SDS011;11853;48.080;11.960;2022-07-21T08:13:23;11.63;;;10.07;;
23362;SDS011;11853;48.080;11.960;2022-07-21T08:15:49;12.60;;;11.38;;
23362;SDS011;11853;48.080;11.960;2022-07-21T08:18:15;12.05;;;10.95;;
23362;SDS011;11853;48.080;11.960;2022-07-21T08:20:41;11.52;;;10.40;;
23362;SDS011;11853;48.080;11.960;2022-07-21T08:23:07;12.68;;;11.30;;
23362;SDS011;11853;48.080;11.960;2022-07-21T08:25:33;12.20;;;11.10;;
23362;SDS011;11853;48.080;11.960;2022-07-21T08:27:59;12.73;;;10.52;;
23362;SDS011;11853;48.080;11.960;2022-07-21T08:30:25;11.50;;;10.30;;
23362;SDS011;11853;48.080;11.960;2022-07-21T08:32:51;12.23;;;11.13;;
23362;SDS011;11853;48.080;11.960;2022-07-21T08:35:17;12.52;;;11.23;;
23362;SDS011;11853;48.080;11.960;2022-07-21T08:37:51;11.80;;;10.68;;
23362;SDS011;11853;48.080;11.960;2022-07-21T08:40:19;12.10;;;10.85;;
23362;SDS011;11853;48.080;11.960;2022-07-21T08:42:48;12.50;;;11.23;;
23362;SDS011;11853;48.080;11.960;2022-07-21T08:45:14;11.75;;;10.65;;
23362;SDS011;11853;48.080;11.960;2022-07-21T08:47:40;12.02;;;10.85;;
23362;SDS011;11853;48.080;11.960;2022-07-21T08:50:07;11.98;;;10.90;;
23362;SDS011;11853;48.080;11.960;2022-07-21T08:52:33;11.38;;;10.27;;
23362;SDS011;11853;48.080;11.960;2022-07-21T08:55:00;12.98;;;10.50;;
23362;SDS011;11853;48.080;11.960;2022-07-21T08:57:26;11.88;;;10.68;;
23362;SDS011;11853;48.080;11.960;2022-07-21T08:59:52;11.80;;;10.35;;
23362;SDS011;11853;48.080;11.960;2022-07-21T09:02:31;12.55;;;11.43;;
23362;SDS011;11853;48.080;11.960;2022-07-21T09:04:58;12.48;;;11.10;;
23362;SDS011;11853;48.080;11.960;2022-07-21T09:07:25;11.93;;;10.73;;
23362;SDS011;11853;48.080;11.960;2022-07-21T09:09:54;11.43;;;9.98;;
23362;SDS011;11853;48.080;11.960;2022-07-21T09:12:25;11.20;;;10.07;;
23362;SDS011;11853;48.080;11.960;2022-07-21T09:14:51;13.32;;;11.93;;
23362;SDS011;11853;48.080;11.960;2022-07-21T09:17:18;12.68;;;11.38;;
23362;SDS011;11853;48.080;11.960;2022-07-21T09:19:45;11.75;;;10.55;;
23362;SDS011;11853;48.080;11.960;2022-07-21T09:22:14;11.75;;;10.65;;
23362;SDS011;11853;48.080;11.960;2022-07-21T09:24:47;10.40;;;9.30;;
23362;SDS011;11853;48.080;11.960;2022-07-21T09:27:18;12.50;;;11.30;;
23362;SDS011;11853;48.080;11.960;2022-07-21T09:29:51;11.02;;;10.05;;
23362;SDS011;11853;48.080;11.960;2022-07-21T09:32:26;10.55;;;9.75;;
23362;SDS011;11853;48.080;11.960;2022-07-21T09:34:58;11.82;;;10.18;;
23362;SDS011;11853;48.080;11.960;2022-07-21T09:37:25;11.75;;;10.65;;
23362;SDS011;11853;48.080;11.960;2022-07-21T09:39:52;10.60;;;9.70;;
23362;SDS011;11853;48.080;11.960;2022-07-21T09:42:24;11.45;;;10.07;;
23362;SDS011;11853;48.080;11.960;2022-07-21T09:47:26;12.30;;;11.05;;
23362;SDS011;11853;48.080;11.960;2022-07-21T09:49:54;12.20;;;10.73;;
23362;SDS011;11853;48.080;11.960;2022-07-21T09:52:34;11.18;;;10.18;;
23362;SDS011;11853;48.080;11.960;2022-07-21T09:55:08;11.77;;;10.13;;
23362;SDS011;11853;48.080;11.960;2022-07-21T09:57:35;11.35;;;10.30;;
23362;SDS011;11853;48.080;11.960;2022-07-21T10:00:05;11.55;;;10.45;;
23362;SDS011;11853;48.080;11.960;2022-07-21T10:02:37;11.13;;;10.23;;
23362;SDS011;11853;48.080;11.960;2022-07-21T10:07:29;11.40;;;10.25;;
23362;SDS011;11853;48.080;11.960;2022-07-21T10:09:56;11.43;;;10.35;;
23362;SDS011;11853;48.080;11.960;2022-07-21T10:12:24;12.13;;;10.82;;
23362;SDS011;11853;48.080;11.960;2022-07-21T10:14:51;11.38;;;10.38;;
23362;SDS011;11853;48.080;11.960;2022-07-21T10:17:18;11.77;;;10.70;;
23362;SDS011;11853;48.080;11.960;2022-07-21T10:19:49;12.13;;;10.90;;
23362;SDS011;11853;48.080;11.960;2022-07-21T10:22:27;11.82;;;10.48;;
23362;SDS011;11853;48.080;11.960;2022-07-21T10:25:13;11.65;;;10.60;;
23362;SDS011;11853;48.080;11.960;2022-07-21T10:28:08;13.02;;;11.63;;
23362;SDS011;11853;48.080;11.960;2022-07-21T10:30:48;12.23;;;11.13;;
23362;SDS011;11853;48.080;11.960;2022-07-21T10:33:16;13.50;;;12.20;;
23362;SDS011;11853;48.080;11.960;2022-07-21T10:35:43;12.80;;;11.57;;
23362;SDS011;11853;48.080;11.960;2022-07-21T10:38:31;13.18;;;11.98;;
23362;SDS011;11853;48.080;11.960;2022-07-21T10:40:59;13.80;;;12.50;;
23362;SDS011;11853;48.080;11.960;2022-07-21T10:45:52;11.65;;;10.68;;
23362;SDS011;11853;48.080;11.960;2022-07-21T10:51:06;11.98;;;10.88;;
23362;SDS011;11853;48.080;11.960;2022-07-21T10:53:34;12.40;;;11.25;;
23362;SDS011;11853;48.080;11.960;2022-07-21T10:56:00;13.65;;;12.50;;
23362;SDS011;11853;48.080;11.960;2022-07-21T10:58:26;13.27;;;11.82;;
23362;SDS011;11853;48.080;11.960;2022-07-21T11:00:57;14.13;;;12.77;;
23362;SDS011;11853;48.080;11.960;2022-07-21T11:03:28;14.33;;;11.90;;
23362;SDS011;11853;48.080;11.960;2022-07-21T11:08:31;12.23;;;10.93;;
23362;SDS011;11853;48.080;11.960;2022-07-21T11:11:20;13.15;;;11.68;;
23362;SDS011;11853;48.080;11.960;2022-07-21T11:22:05;12.50;;;11.32;;
23362;SDS011;11853;48.080;11.960;2022-07-21T11:24:36;12.23;;;11.02;;
23362;SDS011;11853;48.080;11.960;2022-07-21T11:27:06;14.10;;;12.35;;
23362;SDS011;11853;48.080;11.960;2022-07-21T11:32:00;11.85;;;10.85;;
23362;SDS011;11853;48.080;11.960;2022-07-21T11:34:37;12.23;;;11.02;;
23362;SDS011;11853;48.080;11.960;2022-07-21T11:37:16;12.18;;;11.00;;
23362;SDS011;11853;48.080;11.960;2022-07-21T11:40:02;12.68;;;11.30;;
23362;SDS011;11853;48.080;11.960;2022-07-21T11:42:33;12.73;;;11.60;;
23362;SDS011;11853;48.080;11.960;2022-07-21T11:44:59;11.80;;;10.75;;
23362;SDS011;11853;48.080;11.960;2022-07-21T11:47:25;12.32;;;11.20;;
23362;SDS011;11853;48.080;11.960;2022-07-21T11:49:57;13.30;;;11.93;;
23362;SDS011;11853;48.080;11.960;2022-07-21T11:54:52;11.93;;;10.90;;
23362;SDS011;11853;48.080;11.960;2022-07-21T11:57:19;13.32;;;11.95;;
23362;SDS011;11853;48.080;11.960;2022-07-21T11:59:46;13.85;;;11.57;;
23362;SDS011;11853;48.080;11.960;2022-07-21T12:02:14;12.70;;;11.50;;
23362;SDS011;11853;48.080;11.960;2022-07-21T12:04:56;12.02;;;11.02;;
23362;SDS011;11853;48.080;11.960;2022-07-21T12:10:03;14.23;;;12.85;;
23362;SDS011;11853;48.080;11.960;2022-07-21T12:15:12;13.10;;;11.77;;
23362;SDS011;11853;48.080;11.960;2022-07-21T12:17:49;12.27;;;11.25;;
23362;SDS011;11853;48.080;11.960;2022-07-21T12:20:24;13.25;;;11.90;;
23362;SDS011;11853;48.080;11.960;2022-07-21T12:22:58;13.90;;;12.60;;
23362;SDS011;11853;48.080;11.960;2022-07-21T12:25:33;13.45;;;12.23;;
23362;SDS011;11853;48.080;11.960;2022-07-21T12:28:01;12.93;;;11.75;;
23362;SDS011;11853;48.080;11.960;2022-07-21T12:30:40;12.10;;;10.90;;
23362;SDS011;11853;48.080;11.960;2022-07-21T12:35:37;10.90;;;10.00;;
23362;SDS011;11853;48.080;11.960;2022-07-21T12:40:37;11.35;;;10.23;;
23362;SDS011;11853;48.080;11.960;2022-07-21T12:43:05;11.57;;;10.57;;
23362;SDS011;11853;48.080;11.960;2022-07-21T12:46:02;14.32;;;12.88;;
23362;SDS011;11853;48.080;11.960;2022-07-21T12:48:35;12.52;;;11.43;;
23362;SDS011;11853;48.080;11.960;2022-07-21T12:56:16;11.52;;;10.43;;
23362;SDS011;11853;48.080;11.960;2022-07-21T12:58:46;13.48;;;10.27;;
23362;SDS011;11853;48.080;11.960;2022-07-21T13:01:13;10.88;;;9.98;;
23362;SDS011;11853;48.080;11.960;2022-07-21T13:03:40;10.73;;;9.73;;
23362;SDS011;11853;48.080;11.960;2022-07-21T13:06:06;12.45;;;11.30;;
23362;SDS011;11853;48.080;11.960;2022-07-21T13:08:32;10.57;;;9.68;;
23362;SDS011;11853;48.080;11.960;2022-07-21T13:10:59;14.57;;;10.60;;
23362;SDS011;11853;48.080;11.960;2022-07-21T13:13:25;11.70;;;10.50;;
23362;SDS011;11853;48.080;11.960;2022-07-21T13:15:51;11.30;;;10.30;;
23362;SDS011;11853;48.080;11.960;2022-07-21T13:18:17;11.40;;;10.27;;
23362;SDS011;11853;48.080;11.960;2022-07-21T13:20:48;12.65;;;10.73;;
23362;SDS011;11853;48.080;11.960;2022-07-21T13:23:14;11.48;;;10.45;;
23362;SDS011;11853;48.080;11.960;2022-07-21T13:25:43;12.02;;;10.82;;
23362;SDS011;11853;48.080;11.960;2022-07-21T13:28:09;11.82;;;10.80;;
23362;SDS011;11853;48.080;11.960;2022-07-21T13:30:35;11.73;;;10.73;;
23362;SDS011;11853;48.080;11.960;2022-07-21T13:33:01;12.45;;;11.10;;
23362;SDS011;11853;48.080;11.960;2022-07-21T13:35:26;11.25;;;10.18;;
23362;SDS011;11853;48.080;11.960;2022-07-21T13:37:53;11.95;;;10.95;;
23362;SDS011;11853;48.080;11.960;2022-07-21T13:40:19;12.40;;;11.15;;
23362;SDS011;11853;48.080;11.960;2022-07-21T13:42:45;12.55;;;11.32;;
23362;SDS011;11853;48.080;11.960;2022-07-21T13:45:11;12.77;;;11.68;;
23362;SDS011;11853;48.080;11.960;2022-07-21T13:47:39;13.02;;;11.82;;
23362;SDS011;11853;48.080;11.960;2022-07-21T13:50:04;13.45;;;12.15;;
23362;SDS011;11853;48.080;11.960;2022-07-21T13:52:33;14.88;;;13.40;;
23362;SDS011;11853;48.080;11.960;2022-07-21T13:54:59;13.48;;;12.07;;
23362;SDS011;11853;48.080;11.960;2022-07-21T13:57:25;13.25;;;12.05;;
23362;SDS011;11853;48.080;11.960;2022-07-21T13:59:51;17.40;;;15.63;;
23362;SDS011;11853;48.080;11.960;2022-07-21T14:02:17;16.38;;;14.30;;
23362;SDS011;11853;48.080;11.960;2022-07-21T14:04:42;15.02;;;13.38;;
23362;SDS011;11853;48.080;11.960;2022-07-21T14:07:08;13.43;;;12.02;;
23362;SDS011;11853;48.080;11.960;2022-07-21T14:09:38;14.02;;;12.63;;
23362;SDS011;11853;48.080;11.960;2022-07-21T14:12:05;15.18;;;13.68;;
23362;SDS011;11853;48.080;11.960;2022-07-21T14:14:30;14.35;;;12.85;;
23362;SDS011;11853;48.080;11.960;2022-07-21T14:16:56;13.85;;;12.45;;
23362;SDS011;11853;48.080;11.960;2022-07-21T14:19:22;14.90;;;13.38;;
23362;SDS011;11853;48.080;11.960;2022-07-21T14:21:47;15.35;;;13.85;;
23362;SDS011;11853;48.080;11.960;2022-07-21T14:24:13;15.82;;;14.15;;
23362;SDS011;11853;48.080;11.960;2022-07-21T14:26:57;15.68;;;14.05;;
23362;SDS011;11853;48.080;11.960;2022-07-21T14:29:23;15.48;;;14.07;;
23362;SDS011;11853;48.080;11.960;2022-07-21T14:31:48;13.57;;;12.40;;
23362;SDS011;11853;48.080;11.960;2022-07-21T14:34:14;14.35;;;13.05;;
23362;SDS011;11853;48.080;11.960;2022-07-21T14:36:40;15.45;;;13.90;;
23362;SDS011;11853;48.080;11.960;2022-07-21T14:39:06;13.80;;;12.38;;
23362;SDS011;11853;48.080;11.960;2022-07-21T14:41:32;14.35;;;13.02;;
23362;SDS011;11853;48.080;11.960;2022-07-21T14:43:59;13.40;;;12.10;;
23362;SDS011;11853;48.080;11.960;2022-07-21T14:46:27;14.23;;;12.93;;
23362;SDS011;11853;48.080;11.960;2022-07-21T14:48:53;15.15;;;13.65;;
23362;SDS011;11853;48.080;11.960;2022-07-21T14:51:18;14.30;;;12.80;;
23362;SDS011;11853;48.080;11.960;2022-07-21T14:53:44;14.45;;;13.05;;
23362;SDS011;11853;48.080;11.960;2022-07-21T14:56:09;16.90;;;15.27;;
23362;SDS011;11853;48.080;11.960;2022-07-21T14:58:35;18.83;;;15.23;;
23362;SDS011;11853;48.080;11.960;2022-07-21T15:01:01;15.02;;;13.48;;
23362;SDS011;11853;48.080;11.960;2022-07-21T15:03:26;16.17;;;14.48;;